createdAt,value
2022-11-04T00:02:05.989Z,6.73
2022-11-04T00:04:32.710Z,4.33
2022-11-04T00:06:59.477Z,5.03
2022-11-04T00:09:28.463Z,4.70
2022-11-04T00:12:14.500Z,7.30
2022-11-04T00:14:41.294Z,8.03
2022-11-04T00:17:21.944Z,5.03
2022-11-04T00:20:11.318Z,6.37
2022-11-04T00:22:57.327Z,5.27
2022-11-04T00:25:42.469Z,5.30
2022-11-04T00:28:35.648Z,6.10
2022-11-04T00:31:23.416Z,6.83
2022-11-04T00:33:51.650Z,7.10
2022-11-04T00:36:18.894Z,7.70
2022-11-04T00:38:46.192Z,4.60
2022-11-04T00:41:29.725Z,4.57
2022-11-04T00:43:58.496Z,7.80
2022-11-04T00:46:25.947Z,4.03
2022-11-04T00:48:52.885Z,4.43
2022-11-04T00:51:21.307Z,4.50
2022-11-04T00:53:48.174Z,4.00
2022-11-04T00:56:17.882Z,5.73
2022-11-04T00:58:44.480Z,6.07
2022-11-04T01:01:13.790Z,5.47
2022-11-04T01:03:40.447Z,5.17
2022-11-04T01:06:07.222Z,5.13
2022-11-04T01:08:34.490Z,5.83
2022-11-04T01:11:05.522Z,4.37
2022-11-04T01:13:32.621Z,5.17
2022-11-04T01:16:07.093Z,2.97
2022-11-04T01:18:34.620Z,2.90
2022-11-04T01:21:07.508Z,3.50
2022-11-04T01:23:35.075Z,5.83
2022-11-04T01:26:03.071Z,5.40
2022-11-04T01:28:29.759Z,3.83
2022-11-04T01:30:58.989Z,4.03
2022-11-04T01:33:25.556Z,2.40
2022-11-04T01:35:52.425Z,5.23
2022-11-04T01:38:19.156Z,4.17
2022-11-04T01:40:46.283Z,4.40
2022-11-04T01:43:19.113Z,4.00
2022-11-04T01:45:53.398Z,3.50
2022-11-04T01:48:25.058Z,4.93
2022-11-04T01:50:53.675Z,5.07
2022-11-04T01:53:31.720Z,4.90
2022-11-04T01:56:01.546Z,2.80
2022-11-04T01:58:33.919Z,3.17
2022-11-04T02:01:01.810Z,4.60
2022-11-04T02:03:30.927Z,3.10
2022-11-04T02:05:58.332Z,4.80
2022-11-04T02:08:25.787Z,3.20
2022-11-04T02:10:59.500Z,3.70
2022-11-04T02:13:28.020Z,4.80
2022-11-04T02:16:17.235Z,3.93
2022-11-04T02:18:54.303Z,3.73
2022-11-04T02:21:48.657Z,4.50
2022-11-04T02:24:36.354Z,2.07
2022-11-04T02:27:40.675Z,2.83
2022-11-04T02:30:08.687Z,3.20
2022-11-04T02:33:03.520Z,5.33
2022-11-04T02:36:01.109Z,2.03
2022-11-04T02:38:49.354Z,3.13
2022-11-04T02:41:32.563Z,2.60
2022-11-04T02:44:23.293Z,2.63
2022-11-04T02:47:02.398Z,3.20
2022-11-04T02:49:31.773Z,2.40
2022-11-04T02:52:09.734Z,5.50
2022-11-04T02:54:46.003Z,4.07
2022-11-04T02:57:21.643Z,2.57
2022-11-04T02:59:59.873Z,3.43
2022-11-04T03:02:51.168Z,2.50
2022-11-04T03:05:21.254Z,1.70
2022-11-04T03:07:52.076Z,2.53
2022-11-04T03:10:33.580Z,4.57
2022-11-04T03:13:14.071Z,2.30
2022-11-04T03:15:53.136Z,2.33
2022-11-04T03:18:53.500Z,2.80
2022-11-04T03:21:21.783Z,2.00
2022-11-04T03:23:48.400Z,2.20
2022-11-04T03:26:32.459Z,2.37
2022-11-04T03:29:21.504Z,2.93
2022-11-04T03:32:18.220Z,2.73
2022-11-04T03:34:45.062Z,2.60
2022-11-04T03:37:11.675Z,2.43
2022-11-04T03:39:38.317Z,2.60
2022-11-04T03:42:20.170Z,2.87
2022-11-04T03:44:50.679Z,2.80
2022-11-04T03:47:18.872Z,2.50
2022-11-04T03:49:47.989Z,3.20
2022-11-04T03:52:16.508Z,2.27
2022-11-04T03:54:43.660Z,2.60
2022-11-04T03:57:40.835Z,3.43
2022-11-04T04:00:14.841Z,2.10
2022-11-04T04:03:13.866Z,3.87
2022-11-04T04:06:05.906Z,3.53
2022-11-04T04:08:46.390Z,1.97
2022-11-04T04:11:39.138Z,2.30
2022-11-04T04:14:41.622Z,1.93
2022-11-04T04:17:20.733Z,2.27
2022-11-04T04:19:59.848Z,6.40
2022-11-04T04:22:34.195Z,2.60
2022-11-04T04:25:24.667Z,2.50
2022-11-04T04:27:52.911Z,1.80
2022-11-04T04:30:19.628Z,2.47
2022-11-04T04:32:48.392Z,3.90
2022-11-04T04:35:34.189Z,2.47
2022-11-04T04:38:23.642Z,1.60
2022-11-04T04:41:44.415Z,2.10
2022-11-04T04:44:43.888Z,2.00
2022-11-04T04:47:19.982Z,1.83
2022-11-04T04:49:57.886Z,1.67
2022-11-04T04:52:31.474Z,1.63
2022-11-04T04:54:58.300Z,1.73
2022-11-04T04:57:24.916Z,3.00
2022-11-04T04:59:51.499Z,4.80
2022-11-04T05:02:18.214Z,1.83
2022-11-04T05:04:44.863Z,1.77
2022-11-04T05:07:11.524Z,2.87
2022-11-04T05:09:38.089Z,1.43
2022-11-04T05:12:04.763Z,4.63
2022-11-04T05:14:31.422Z,2.30
2022-11-04T05:16:58.092Z,4.23
2022-11-04T05:19:24.691Z,1.50
2022-11-04T05:21:51.281Z,3.03
2022-11-04T05:24:17.825Z,1.70
2022-11-04T05:26:44.396Z,2.10
2022-11-04T05:29:12.341Z,2.73
2022-11-04T05:31:39.358Z,1.90
2022-11-04T05:34:06.275Z,2.63
2022-11-04T05:36:33.200Z,2.60
2022-11-04T05:38:59.826Z,1.73
2022-11-04T05:41:26.601Z,1.87
2022-11-04T05:44:04.108Z,1.43
2022-11-04T05:46:31.229Z,1.70
2022-11-04T05:48:57.836Z,1.10
2022-11-04T05:51:26.943Z,3.17
2022-11-04T05:53:53.880Z,1.50
2022-11-04T05:56:20.942Z,2.60
2022-11-04T05:58:47.492Z,1.97
2022-11-04T06:01:24.380Z,1.50
2022-11-04T06:03:52.171Z,1.70
2022-11-04T06:06:19.554Z,1.80
2022-11-04T06:08:46.173Z,2.03
2022-11-04T06:11:12.967Z,5.17
2022-11-04T06:13:39.551Z,3.07
2022-11-04T06:16:06.356Z,4.70
2022-11-04T06:18:32.914Z,1.53
2022-11-04T06:21:11.015Z,3.97
2022-11-04T06:23:37.563Z,6.13
2022-11-04T06:26:04.655Z,3.97
2022-11-04T06:28:31.465Z,10.33
2022-11-04T06:30:59.051Z,2.10
2022-11-04T06:33:25.735Z,3.20
2022-11-04T06:35:52.607Z,4.13
2022-11-04T06:38:19.188Z,1.93
2022-11-04T06:40:45.790Z,6.07
2022-11-04T06:43:12.348Z,2.60
2022-11-04T06:45:38.893Z,6.30
2022-11-04T06:48:05.836Z,4.20
2022-11-04T06:50:32.407Z,7.67
2022-11-04T06:52:59.231Z,3.13
2022-11-04T06:55:25.771Z,5.17
2022-11-04T06:57:52.379Z,3.40
2022-11-04T07:00:19.020Z,2.30
2022-11-04T07:02:45.722Z,6.77
2022-11-04T07:05:13.205Z,3.77
2022-11-04T07:07:39.775Z,4.43
2022-11-04T07:10:06.658Z,5.20
2022-11-04T07:12:33.191Z,5.50
2022-11-04T07:14:59.847Z,5.00
2022-11-04T07:17:26.489Z,8.60
2022-11-04T07:19:53.032Z,3.27
2022-11-04T07:22:19.568Z,3.80
2022-11-04T07:24:46.116Z,3.53
2022-11-04T07:27:12.752Z,3.53
2022-11-04T07:29:39.319Z,3.70
2022-11-04T07:32:06.080Z,3.97
2022-11-04T07:34:32.681Z,1.97
2022-11-04T07:36:59.233Z,4.97
2022-11-04T07:39:25.852Z,6.80
2022-11-04T07:41:58.326Z,4.30
2022-11-04T07:44:26.014Z,4.50
2022-11-04T07:46:52.645Z,4.47
2022-11-04T07:49:19.219Z,4.70
2022-11-04T07:51:45.740Z,4.30
2022-11-04T07:54:12.284Z,5.23
2022-11-04T07:56:38.803Z,4.40
2022-11-04T07:59:06.898Z,5.00
2022-11-04T08:01:34.106Z,1.63
2022-11-04T08:04:00.843Z,2.90
2022-11-04T08:06:27.399Z,4.60
2022-11-04T08:08:54.283Z,1.77
2022-11-04T08:11:28.260Z,3.50
2022-11-04T08:13:55.748Z,4.73
2022-11-04T08:16:24.239Z,4.90
2022-11-04T08:18:55.519Z,5.70
2022-11-04T08:21:22.162Z,6.33
2022-11-04T08:23:51.395Z,16.33
2022-11-04T08:26:20.960Z,8.73
2022-11-04T08:28:47.992Z,4.53
2022-11-04T08:31:26.204Z,5.70
2022-11-04T08:33:53.922Z,5.40
2022-11-04T08:36:26.969Z,9.23
2022-11-04T08:38:54.091Z,4.70
2022-11-04T08:41:34.445Z,6.77
2022-11-04T08:44:03.689Z,5.23
2022-11-04T08:46:35.175Z,6.00
2022-11-04T08:49:05.702Z,7.20
2022-11-04T08:51:38.072Z,8.43
2022-11-04T08:54:05.544Z,3.73
2022-11-04T08:56:38.003Z,5.50
2022-11-04T08:59:05.379Z,4.40
2022-11-04T09:01:36.051Z,10.43
2022-11-04T09:04:03.569Z,3.17
2022-11-04T09:06:34.760Z,4.07
2022-11-04T09:09:04.572Z,6.73
2022-11-04T09:11:33.336Z,2.90
2022-11-04T09:14:01.602Z,5.93
2022-11-04T09:16:30.021Z,8.53
2022-11-04T09:18:57.489Z,2.50
2022-11-04T09:21:25.578Z,5.63
2022-11-04T09:23:52.630Z,4.97
2022-11-04T09:26:20.441Z,2.77
2022-11-04T09:28:47.029Z,4.60
2022-11-04T09:31:16.807Z,8.10
2022-11-04T09:33:43.505Z,2.30
2022-11-04T09:36:11.366Z,2.40
2022-11-04T09:38:40.084Z,3.23
2022-11-04T09:41:23.754Z,2.03
2022-11-04T09:44:19.487Z,3.77
2022-11-04T09:46:49.293Z,4.00
2022-11-04T09:49:19.131Z,2.43
2022-11-04T09:51:54.324Z,5.57
2022-11-04T09:54:32.923Z,1.80
2022-11-04T09:57:02.417Z,5.00
2022-11-04T09:59:32.659Z,3.57
2022-11-04T10:01:59.570Z,3.70
2022-11-04T10:04:52.482Z,1.70
2022-11-04T10:07:38.510Z,4.17
2022-11-04T10:10:08.223Z,4.70
2022-11-04T10:12:49.479Z,3.57
2022-11-04T10:15:38.220Z,4.03
2022-11-04T10:18:29.424Z,3.07
2022-11-04T10:21:20.959Z,3.83
2022-11-04T10:24:05.426Z,4.30
2022-11-04T10:27:06.815Z,3.20
2022-11-04T10:29:38.368Z,1.83
2022-11-04T10:32:18.096Z,2.57
2022-11-04T10:34:58.242Z,2.20
2022-11-04T10:37:26.541Z,2.20
2022-11-04T10:40:07.000Z,3.53
2022-11-04T10:42:33.608Z,2.70
2022-11-04T10:45:00.188Z,3.20
2022-11-04T10:47:43.474Z,2.63
2022-11-04T10:50:30.508Z,4.93
2022-11-04T10:53:16.286Z,1.80
2022-11-04T10:56:05.014Z,12.33
2022-11-04T10:58:36.397Z,1.73
2022-11-04T11:01:23.659Z,2.33
2022-11-04T11:03:50.304Z,3.30
2022-11-04T11:06:27.814Z,3.17
2022-11-04T11:09:01.252Z,2.60
2022-11-04T11:11:49.975Z,6.90
2022-11-04T11:14:18.200Z,3.30
2022-11-04T11:16:45.686Z,4.13
2022-11-04T11:19:12.190Z,2.27
2022-11-04T11:21:50.035Z,1.53
2022-11-04T11:24:24.339Z,2.40
2022-11-04T11:26:54.971Z,6.10
2022-11-04T11:29:31.661Z,9.17
2022-11-04T11:32:00.626Z,4.70
2022-11-04T11:34:34.201Z,3.63
2022-11-04T11:37:05.550Z,2.40
2022-11-04T11:39:34.828Z,3.43
2022-11-04T11:42:06.810Z,3.27
2022-11-04T11:44:48.637Z,7.43
2022-11-04T11:47:36.820Z,5.50
2022-11-04T11:50:15.823Z,4.20
2022-11-04T11:52:44.163Z,9.00
2022-11-04T11:55:24.816Z,2.13
2022-11-04T12:01:19.368Z,2.97
2022-11-04T12:09:54.353Z,2.30
2022-11-04T12:12:35.522Z,2.40
2022-11-04T12:15:14.363Z,11.17
2022-11-04T12:17:47.193Z,5.50
2022-11-04T12:20:32.504Z,3.10
2022-11-04T12:23:03.320Z,7.00
2022-11-04T12:25:48.017Z,7.50
2022-11-04T12:28:35.172Z,18.97
2022-11-04T12:31:10.701Z,32.17
2022-11-04T12:33:54.697Z,39.07
2022-11-04T12:36:52.224Z,40.07
2022-11-04T12:39:44.326Z,38.73
2022-11-04T12:42:33.194Z,46.83
2022-11-04T12:45:21.218Z,12.30
2022-11-04T12:47:48.145Z,41.90
2022-11-04T12:50:42.372Z,41.53
2022-11-04T12:53:30.169Z,30.83
2022-11-04T12:56:07.655Z,29.90
2022-11-04T12:59:09.931Z,31.23
2022-11-04T13:01:46.917Z,28.37
2022-11-04T13:04:32.426Z,28.80
2022-11-04T13:07:03.912Z,21.00
2022-11-04T13:09:30.390Z,33.73
2022-11-04T13:12:14.622Z,20.77
2022-11-04T13:14:51.284Z,17.27
2022-11-04T13:17:23.871Z,16.33
2022-11-04T13:19:51.935Z,16.10
2022-11-04T13:22:24.069Z,21.33
2022-11-04T13:24:56.472Z,16.63
2022-11-04T13:27:26.608Z,14.10
2022-11-04T13:30:16.371Z,11.13
2022-11-04T13:33:05.324Z,9.43
2022-11-04T13:35:38.209Z,8.10
2022-11-04T13:38:13.031Z,8.50
2022-11-04T13:40:55.681Z,15.50
2022-11-04T13:43:41.649Z,11.00
2022-11-04T13:46:11.150Z,14.07
2022-11-04T13:49:02.621Z,9.37
2022-11-04T13:51:44.617Z,11.50
2022-11-04T13:54:45.613Z,8.53
2022-11-04T13:57:30.279Z,8.73
2022-11-04T14:00:14.658Z,8.77
2022-11-04T14:02:57.489Z,10.43
2022-11-04T14:05:27.188Z,13.73
2022-11-04T14:08:01.927Z,9.27
2022-11-04T14:10:48.409Z,8.33
2022-11-04T14:13:30.600Z,15.00
2022-11-04T14:16:05.771Z,9.40
2022-11-04T14:18:40.646Z,8.57
2022-11-04T14:21:12.958Z,10.43
2022-11-04T14:23:42.903Z,12.53
2022-11-04T14:26:15.182Z,10.97
2022-11-04T14:28:45.099Z,9.03
2022-11-04T14:31:17.573Z,10.83
2022-11-04T14:33:54.016Z,15.30
2022-11-04T14:36:20.693Z,8.90
2022-11-04T14:39:11.750Z,12.07
2022-11-04T14:41:41.098Z,11.10
2022-11-04T14:44:18.320Z,10.50
2022-11-04T14:46:47.217Z,12.80
2022-11-04T14:49:45.615Z,14.17
2022-11-04T14:52:34.965Z,9.33
2022-11-04T14:55:11.566Z,9.10
2022-11-04T14:57:43.386Z,8.63
2022-11-04T15:00:23.743Z,12.37
2022-11-04T15:03:57.877Z,8.30
2022-11-04T15:06:09.861Z,6.87
2022-11-04T15:08:42.434Z,7.47
2022-11-04T15:11:38.432Z,6.97
2022-11-04T15:14:13.419Z,9.43
2022-11-04T15:16:40.492Z,5.67
2022-11-04T15:19:10.187Z,6.80
2022-11-04T15:21:41.371Z,11.23
2022-11-04T15:24:16.429Z,7.40
2022-11-04T15:26:48.697Z,6.73
2022-11-04T15:29:16.762Z,14.33
2022-11-04T15:31:55.830Z,8.73
2022-11-04T15:34:24.540Z,9.63
2022-11-04T15:36:54.382Z,6.07
2022-11-04T15:39:31.250Z,8.50
2022-11-04T15:42:21.025Z,7.93
2022-11-04T15:44:51.367Z,9.47
2022-11-04T15:47:17.897Z,9.80
2022-11-04T15:49:45.930Z,5.60
2022-11-04T15:52:16.682Z,9.33
2022-11-04T15:54:49.036Z,10.17
2022-11-04T15:57:27.687Z,7.50
2022-11-04T16:00:01.745Z,8.53
2022-11-04T16:02:32.040Z,6.03
2022-11-04T16:05:10.753Z,11.67
2022-11-04T16:07:41.573Z,8.33
2022-11-04T16:10:41.041Z,13.30
2022-11-04T16:13:16.767Z,8.40
2022-11-04T16:15:58.684Z,7.17
2022-11-04T16:18:26.548Z,7.17
2022-11-04T16:20:54.429Z,6.07
2022-11-04T16:23:24.779Z,6.37
2022-11-04T16:26:06.046Z,3.63
2022-11-04T16:28:38.270Z,7.90
2022-11-04T16:31:26.653Z,4.87
2022-11-04T16:33:53.315Z,6.10
2022-11-04T16:36:29.691Z,5.50
2022-11-04T16:39:03.654Z,9.10
2022-11-04T16:41:34.320Z,6.70
2022-11-04T16:44:00.863Z,7.83
2022-11-04T16:46:27.793Z,6.57
2022-11-04T16:48:54.325Z,5.50
2022-11-04T16:51:22.683Z,5.37
2022-11-04T16:53:51.897Z,5.77
2022-11-04T16:56:21.703Z,5.43
2022-11-04T16:58:48.557Z,11.03
2022-11-04T17:01:15.528Z,5.83
2022-11-04T17:03:43.125Z,3.80
2022-11-04T17:06:12.263Z,5.23
2022-11-04T17:08:39.226Z,5.27
2022-11-04T17:11:06.352Z,4.70
2022-11-04T17:13:36.345Z,8.40
2022-11-04T17:16:04.846Z,7.10
2022-11-04T17:18:32.888Z,6.10
2022-11-04T17:21:02.404Z,7.60
2022-11-04T17:23:28.928Z,4.00
2022-11-04T17:25:55.540Z,6.00
2022-11-04T17:28:22.180Z,4.23
2022-11-04T17:30:48.969Z,9.00
2022-11-04T17:33:17.239Z,4.80
2022-11-04T17:35:48.188Z,7.03
2022-11-04T17:38:15.370Z,9.50
2022-11-04T17:41:00.349Z,5.43
2022-11-04T17:43:45.745Z,7.30
2022-11-04T17:46:31.437Z,5.80
2022-11-04T17:48:58.393Z,6.90
2022-11-04T17:51:25.181Z,7.20
2022-11-04T17:53:52.098Z,4.67
2022-11-04T17:56:21.210Z,5.90
2022-11-04T17:58:48.532Z,8.13
2022-11-04T18:01:17.637Z,5.97
2022-11-04T18:03:44.305Z,15.30
2022-11-04T18:06:10.984Z,23.90
2022-11-04T18:08:37.733Z,22.50
2022-11-04T18:11:10.023Z,16.10
2022-11-04T18:13:36.889Z,20.50
2022-11-04T18:16:13.595Z,7.40
2022-11-04T18:18:40.522Z,15.93
2022-11-04T18:21:08.461Z,10.80
2022-11-04T18:23:35.146Z,12.33
2022-11-04T18:26:02.836Z,11.70
2022-11-04T18:28:29.462Z,8.13
2022-11-04T18:30:56.058Z,8.10
2022-11-04T18:33:22.661Z,5.13
2022-11-04T18:35:49.231Z,13.27
2022-11-04T18:38:15.772Z,9.23
2022-11-04T18:40:42.308Z,8.87
2022-11-04T18:43:09.378Z,14.30
2022-11-04T18:45:36.796Z,7.27
2022-11-04T18:48:03.674Z,12.67
2022-11-04T18:50:31.338Z,9.87
2022-11-04T18:52:57.867Z,10.63
2022-11-04T18:55:24.428Z,10.97
2022-11-04T18:57:55.396Z,11.93
2022-11-04T19:00:22.491Z,6.33
2022-11-04T19:02:49.136Z,15.03
2022-11-04T19:05:15.907Z,16.73
2022-11-04T19:07:42.447Z,12.83
2022-11-04T19:10:09.768Z,15.40
2022-11-04T19:12:54.780Z,9.80
2022-11-04T19:15:21.395Z,7.20
2022-11-04T19:17:48.002Z,15.83
2022-11-04T19:20:14.546Z,8.60
2022-11-04T19:22:41.514Z,12.73
2022-11-04T19:25:09.450Z,5.40
2022-11-04T19:27:36.247Z,12.47
2022-11-04T19:30:03.171Z,12.57
2022-11-04T19:32:29.729Z,19.17
2022-11-04T19:34:56.253Z,8.30
2022-11-04T19:37:22.824Z,14.00
2022-11-04T19:39:49.359Z,10.90
2022-11-04T19:42:34.885Z,11.63
2022-11-04T19:45:01.441Z,7.17
2022-11-04T19:47:27.996Z,13.57
2022-11-04T19:49:55.503Z,8.97
2022-11-04T19:52:22.092Z,8.90
2022-11-04T19:54:48.643Z,13.00
2022-11-04T19:57:15.384Z,9.30
2022-11-04T19:59:41.975Z,11.70
2022-11-04T20:02:13.291Z,9.10
2022-11-04T20:04:39.984Z,9.80
2022-11-04T20:07:06.929Z,10.67
2022-11-04T20:09:33.443Z,6.70
2022-11-04T20:12:18.446Z,12.00
2022-11-04T20:14:45.104Z,7.80
2022-11-04T20:17:11.629Z,16.03
2022-11-04T20:19:38.210Z,17.33
2022-11-04T20:22:04.773Z,9.70
2022-11-04T20:24:31.349Z,8.63
2022-11-04T20:26:58.004Z,10.40
2022-11-04T20:29:24.590Z,11.13
2022-11-04T20:31:51.395Z,11.70
2022-11-04T20:34:17.920Z,9.93
2022-11-04T20:36:44.510Z,15.40
2022-11-04T20:39:16.418Z,6.83
2022-11-04T20:41:44.064Z,16.13
2022-11-04T20:44:12.180Z,9.13
2022-11-04T20:46:39.506Z,5.40
2022-11-04T20:49:06.301Z,12.10
2022-11-04T20:51:35.933Z,12.27
2022-11-04T20:54:06.668Z,16.27
2022-11-04T20:56:38.384Z,7.70
2022-11-04T20:59:06.149Z,24.30
2022-11-04T21:01:35.008Z,9.73
2022-11-04T21:04:08.104Z,12.87
2022-11-04T21:06:38.804Z,10.73
2022-11-04T21:09:08.199Z,12.10
2022-11-04T21:11:35.665Z,7.70
2022-11-04T21:14:04.202Z,16.30
2022-11-04T21:16:30.801Z,5.80
2022-11-04T21:18:57.790Z,11.13
2022-11-04T21:21:27.630Z,9.30
2022-11-04T21:24:01.742Z,5.67
2022-11-04T21:26:30.544Z,12.27
2022-11-04T21:29:00.733Z,7.63
2022-11-04T21:31:28.815Z,11.37
2022-11-04T21:33:56.054Z,8.00
2022-11-04T21:36:22.965Z,7.20
2022-11-04T21:38:49.798Z,5.67
2022-11-04T21:41:18.908Z,5.60
2022-11-04T21:43:45.646Z,5.37
2022-11-04T21:46:16.139Z,5.20
2022-11-04T21:48:43.138Z,11.70
2022-11-04T21:51:13.517Z,10.73
2022-11-04T21:53:40.521Z,9.17
2022-11-04T21:56:13.104Z,14.43
2022-11-04T21:58:40.133Z,7.57
2022-11-04T22:01:08.158Z,6.00
2022-11-04T22:03:34.998Z,4.30
2022-11-04T22:06:10.166Z,7.33
2022-11-04T22:08:37.560Z,11.93
2022-11-04T22:11:16.190Z,8.33
2022-11-04T22:13:42.834Z,8.80
2022-11-04T22:16:19.716Z,9.10
2022-11-04T22:18:47.311Z,9.93
2022-11-04T22:21:18.157Z,5.53
2022-11-04T22:23:45.248Z,7.90
2022-11-04T22:26:20.048Z,9.77
2022-11-04T22:28:46.913Z,7.23
2022-11-04T22:31:17.267Z,9.40
2022-11-04T22:33:44.412Z,8.80
2022-11-04T22:36:11.946Z,6.07
2022-11-04T22:38:40.844Z,6.43
2022-11-04T22:41:10.385Z,11.13
2022-11-04T22:43:36.992Z,4.77
2022-11-04T22:46:08.328Z,12.43
2022-11-04T22:48:36.321Z,10.47
2022-11-04T22:51:06.910Z,7.77
2022-11-04T22:53:33.580Z,7.17
2022-11-04T22:56:01.407Z,10.53
2022-11-04T22:58:29.093Z,7.53
2022-11-04T23:01:01.904Z,6.00
2022-11-04T23:03:29.315Z,9.80
2022-11-04T23:05:58.007Z,9.90
2022-11-04T23:08:26.294Z,6.60
2022-11-04T23:11:16.921Z,5.07
2022-11-04T23:14:09.408Z,4.10
2022-11-04T23:16:54.748Z,8.17
2022-11-04T23:19:22.393Z,6.47
2022-11-04T23:22:10.006Z,6.10
2022-11-04T23:24:55.291Z,6.97
2022-11-04T23:27:40.636Z,6.80
2022-11-04T23:30:21.412Z,10.60
2022-11-04T23:33:03.146Z,7.77
2022-11-04T23:35:57.376Z,6.50
2022-11-04T23:38:25.314Z,5.33
2022-11-04T23:41:14.205Z,8.33
2022-11-04T23:43:40.918Z,6.00
2022-11-04T23:46:26.098Z,6.30
2022-11-04T23:49:11.444Z,5.67
2022-11-04T23:51:56.838Z,4.57
2022-11-04T23:54:42.115Z,5.23
2022-11-04T23:57:37.265Z,6.43
